Погода Куркулна неделю

Горголь, Мавритания

22 - 28 июля
  • 22июля
    Сегодня
    +29°
    +38°
    Ясно и безоблачно
    ВремяПогодаТемператураВлажностьДавлениеВетер, м/сВероятность осадков
    00:00Ясно и безоблачно+34°C54 %752 мм6.4 м/с2 %
    03:00Ясно и безоблачно+33°C63 %751 мм6.2 м/с2 %
    06:00Практически безоблачно+31°C66 %752 мм4.7 м/с2 %
    09:00Ясно и безоблачно+31°C61 %753 мм5.5 м/с2 %
    12:00Ясно и безоблачно+35°C42 %753 мм5.7 м/с2 %
    15:00Ясно и безоблачно+37°C35 %751 мм5.9 м/с2 %
    18:00Облачно с прояснениями+38°C35 %750 мм5.3 м/с2 %
    21:00Облачно с прояснениями+36°C39 %752 мм4.5 м/с2 %
  • 23июля
    Вторник
    +27°
    +39°
    Небольшая облачность
    ВремяПогодаТемператураВлажностьДавлениеВетер, м/сВероятность осадков
    00:00Практически безоблачно+35°C44 %753 мм5.0 м/с2 %
    03:00Пасмурно, сплошная облачность+33°C56 %753 мм6.8 м/с16 %
    06:00Практически безоблачно+30°C67 %754 мм3.7 м/с17 %
    09:00Небольшая облачность+31°C61 %755 мм5.8 м/с6 %
    12:00Пасмурно, сплошная облачность+34°C49 %755 мм3.4 м/с9 %
    15:00Небольшая облачность+38°C43 %753 мм2.4 м/с13 %
    18:00Облачно с прояснениями+36°C50 %752 мм1.0 м/с40 %
    21:00Облачно с прояснениями+33°C62 %754 мм2.9 м/с27 %
  • 24июля
    Среда
    +26°
    +37°
    Ясно и безоблачно
    ВремяПогодаТемператураВлажностьДавлениеВетер, м/сВероятность осадков
    00:00Небольшая облачность+32°C77 %755 мм4.4 м/с9 %
    03:00Небольшая облачность+30°C85 %755 мм6.3 м/с29 %
    06:00Ясно и безоблачно+28°C82 %755 мм3.8 м/с27 %
    09:00Ясно и безоблачно+29°C74 %756 мм2.8 м/с3 %
    12:00Ясно и безоблачно+33°C56 %755 мм2.7 м/с5 %
    15:00Ясно и безоблачно+36°C44 %753 мм2.9 м/с2 %
    18:00Облачно с прояснениями+37°C41 %752 мм3.3 м/с2 %
    21:00Практически безоблачно+36°C44 %754 мм1.9 м/с4 %
  • 25июля
    Четверг
    +26°
    +33°
    Небольшая облачность
    ВремяПогодаТемператураВлажностьДавлениеВетер, м/сВероятность осадков
    00:00Ясно и безоблачно+33°C62 %754 мм4.0 м/с17 %
    03:00Облачно с прояснениями+30°C74 %754 мм5.2 м/с46 %
    06:00Облачно с прояснениями+27°C84 %754 мм2.1 м/с43 %
    09:00Ясно и безоблачно+28°C83 %755 мм3.2 м/с13 %
    12:00Облачно с прояснениями+29°C68 %753 мм4.6 м/с3 %
    15:00Небольшая облачность+32°C63 %752 мм5.1 м/с2 %
    18:00Ясно и безоблачно+32°C66 %750 мм5.8 м/с2 %
    21:00Практически безоблачно+31°C77 %751 мм5.7 м/с2 %
  • 26июля
    Пятница
    +24°
    +34°
    Ясно и безоблачно
    ВремяПогодаТемператураВлажностьДавлениеВетер, м/сВероятность осадков
    00:00Ясно и безоблачно+30°C80 %752 мм6.0 м/с3 %
    03:00Ясно и безоблачно+29°C84 %752 мм6.3 м/с2 %
    06:00Ясно и безоблачно+27°C88 %752 мм6.2 м/с2 %
    09:00Практически безоблачно+28°C80 %752 мм6.5 м/с2 %
    12:00Ясно и безоблачно+31°C61 %752 мм6.2 м/с3 %
    15:00Ясно и безоблачно+33°C53 %751 мм7.5 м/с2 %
    18:00Ясно и безоблачно+34°C58 %750 мм7.3 м/с2 %
    21:00Ясно и безоблачно+32°C70 %751 мм3.7 м/с2 %
Мы используем cookies
Соглашаюсь